createdAt,value
2019-03-25T00:00:22.057Z,6.36
2019-03-25T00:05:31.076Z,6.50
2019-03-25T00:10:40.710Z,6.17
2019-03-25T00:15:49.074Z,5.83
2019-03-25T00:20:58.446Z,6.73
2019-03-25T00:26:06.851Z,6.21
2019-03-25T00:31:15.362Z,6.36
2019-03-25T00:36:23.969Z,6.52
2019-03-25T00:41:32.387Z,7.13
2019-03-25T00:46:40.629Z,7.13
2019-03-25T00:51:48.909Z,7.59
2019-03-25T00:56:57.286Z,7.78
2019-03-25T01:02:05.823Z,7.95
2019-03-25T01:07:14.210Z,7.87
2019-03-25T01:12:22.520Z,7.72
2019-03-25T01:17:31.459Z,8.03
2019-03-25T01:22:39.902Z,8.56
2019-03-25T01:27:48.606Z,8.02
2019-03-25T01:32:57.402Z,7.84
2019-03-25T01:38:05.737Z,7.78
2019-03-25T01:43:14.119Z,7.39
2019-03-25T01:48:22.469Z,8.10
2019-03-25T01:53:30.937Z,8.15
2019-03-25T01:58:39.127Z,7.88
2019-03-25T02:03:47.458Z,7.63
2019-03-25T02:08:56.099Z,6.87
2019-03-25T02:14:04.567Z,6.70
2019-03-25T02:19:13.956Z,6.23
2019-03-25T02:24:22.263Z,4.78
2019-03-25T02:29:30.624Z,3.93
2019-03-25T02:34:38.920Z,4.45
2019-03-25T02:39:47.347Z,4.17
2019-03-25T02:44:55.753Z,4.43
2019-03-25T02:50:04.212Z,4.25
2019-03-25T02:55:12.608Z,3.99
2019-03-25T03:00:21.392Z,3.46
2019-03-25T03:05:30.151Z,3.48
2019-03-25T03:10:38.566Z,3.09
2019-03-25T03:15:46.899Z,3.05
2019-03-25T03:20:55.266Z,3.07
2019-03-25T03:26:03.738Z,3.33
2019-03-25T03:31:11.990Z,4.01
2019-03-25T03:36:20.740Z,3.79
2019-03-25T03:41:28.942Z,3.34
2019-03-25T03:46:37.417Z,3.47
2019-03-25T03:51:45.917Z,2.90
2019-03-25T03:56:54.549Z,2.51
2019-03-25T04:02:02.825Z,3.22
2019-03-25T04:07:11.543Z,3.08
2019-03-25T04:12:19.755Z,2.58
2019-03-25T04:17:28.059Z,2.78
2019-03-25T04:22:36.282Z,2.62
2019-03-25T04:27:44.715Z,2.56
2019-03-25T04:32:53.058Z,2.93
2019-03-25T04:38:01.351Z,2.82
2019-03-25T04:43:09.525Z,3.52
2019-03-25T04:48:17.742Z,3.77
2019-03-25T04:53:25.844Z,3.57
2019-03-25T04:58:34.143Z,3.54
2019-03-25T05:03:42.371Z,3.52
2019-03-25T05:08:50.525Z,3.77
2019-03-25T05:13:58.755Z,3.87
2019-03-25T05:19:07.151Z,3.81
2019-03-25T05:24:15.726Z,3.30
2019-03-25T05:29:24.138Z,3.50
2019-03-25T05:34:32.290Z,3.42
2019-03-25T05:39:41.180Z,3.29
2019-03-25T05:44:49.432Z,3.23
2019-03-25T05:49:57.756Z,3.60
2019-03-25T05:55:06.131Z,3.48
2019-03-25T06:00:14.382Z,3.10
2019-03-25T06:05:23.312Z,3.12
2019-03-25T06:10:31.931Z,3.82
2019-03-25T06:15:40.186Z,3.57
2019-03-25T06:20:48.525Z,3.11
2019-03-25T06:25:56.846Z,3.37
2019-03-25T06:31:05.183Z,3.18
2019-03-25T06:36:13.409Z,3.44
2019-03-25T06:41:21.897Z,3.72
2019-03-25T06:46:31.147Z,3.83
2019-03-25T06:51:39.479Z,3.81
2019-03-25T06:56:47.823Z,3.96
2019-03-25T07:01:56.128Z,4.04
2019-03-25T07:07:04.837Z,3.60
2019-03-25T07:12:13.126Z,4.73
2019-03-25T07:17:21.530Z,5.53
2019-03-25T07:22:29.838Z,4.10
2019-03-25T07:27:38.102Z,3.61
2019-03-25T07:32:46.401Z,4.19
2019-03-25T07:37:54.779Z,4.34
2019-03-25T07:43:03.247Z,3.51
2019-03-25T07:48:11.475Z,5.25
2019-03-25T07:53:19.726Z,5.50
2019-03-25T07:58:28.252Z,5.21
2019-03-25T08:03:36.431Z,3.94
2019-03-25T08:08:44.762Z,3.20
2019-03-25T08:13:53.110Z,3.13
2019-03-25T08:19:01.272Z,3.31
2019-03-25T08:24:09.630Z,2.85
2019-03-25T08:29:18.010Z,3.45
2019-03-25T08:34:26.197Z,3.63
2019-03-25T08:39:34.717Z,3.81
2019-03-25T08:44:43.164Z,4.38
2019-03-25T08:49:51.516Z,3.67
2019-03-25T08:54:59.741Z,4.21
2019-03-25T09:00:08.065Z,3.68
2019-03-25T09:05:16.410Z,3.80
2019-03-25T09:10:24.833Z,3.12
2019-03-25T09:15:33.086Z,2.53
2019-03-25T09:20:41.330Z,2.65
2019-03-25T09:25:50.946Z,2.67
2019-03-25T09:30:59.228Z,4.04
2019-03-25T09:36:07.530Z,2.34
2019-03-25T09:41:15.765Z,2.31
2019-03-25T09:46:24.168Z,2.80
2019-03-25T09:51:32.398Z,2.56
2019-03-25T09:56:40.970Z,2.72
2019-03-25T10:01:49.157Z,2.94
2019-03-25T10:06:57.450Z,3.12
2019-03-25T10:12:05.723Z,3.11
2019-03-25T10:17:14.319Z,3.05
2019-03-25T10:22:22.682Z,2.80
2019-03-25T10:27:31.264Z,2.73
2019-03-25T10:32:39.598Z,2.78
2019-03-25T10:37:47.890Z,2.79
2019-03-25T10:42:54.552Z,2.95
2019-03-25T10:48:06.839Z,2.77
2019-03-25T10:53:05.134Z,2.66
2019-03-25T10:58:13.421Z,3.73
2019-03-25T11:03:21.789Z,2.84
2019-03-25T11:08:30.183Z,3.64
2019-03-25T11:13:38.522Z,2.82
2019-03-25T11:18:46.930Z,2.07
2019-03-25T11:23:55.172Z,2.53
2019-03-25T11:29:08.427Z,2.46
2019-03-25T11:34:11.289Z,2.94
2019-03-25T11:39:19.610Z,3.28
2019-03-25T11:44:29.062Z,3.12
2019-03-25T11:49:35.957Z,2.89
2019-03-25T11:54:44.248Z,2.84
2019-03-25T11:59:52.553Z,2.90
2019-03-25T12:05:00.876Z,2.65
2019-03-25T12:10:09.405Z,3.71
2019-03-25T12:15:17.584Z,3.18
2019-03-25T12:20:26.169Z,2.78
2019-03-25T12:25:34.549Z,5.46
2019-03-25T12:30:42.761Z,3.21
2019-03-25T12:35:51.043Z,2.89
2019-03-25T12:40:59.106Z,3.36
2019-03-25T12:46:07.292Z,2.51
2019-03-25T12:51:15.655Z,2.10
2019-03-25T12:56:23.977Z,2.29
2019-03-25T13:01:32.879Z,2.65
2019-03-25T13:06:41.346Z,2.59
2019-03-25T13:11:49.637Z,2.99
2019-03-25T13:16:57.989Z,2.77
2019-03-25T13:22:06.217Z,2.66
2019-03-25T13:27:14.421Z,3.68
2019-03-25T13:32:22.715Z,5.33
2019-03-25T13:37:31.025Z,3.18
2019-03-25T13:42:39.412Z,2.52
2019-03-25T13:47:47.989Z,2.42
2019-03-25T13:52:56.335Z,2.40
2019-03-25T13:58:04.550Z,2.62
2019-03-25T14:03:12.886Z,2.58
2019-03-25T14:08:21.181Z,2.42
2019-03-25T14:13:29.566Z,2.43
2019-03-25T14:18:37.946Z,2.55
2019-03-25T14:23:46.283Z,2.31
2019-03-25T14:28:54.601Z,2.33
2019-03-25T14:34:02.857Z,2.30
2019-03-25T14:39:11.158Z,2.40
2019-03-25T14:44:19.393Z,2.10
2019-03-25T14:49:27.819Z,2.81
2019-03-25T14:54:36.015Z,2.08
2019-03-25T14:59:44.665Z,2.53
2019-03-25T15:04:52.813Z,2.46
2019-03-25T15:10:01.025Z,3.28
2019-03-25T15:15:09.195Z,3.39
2019-03-25T15:20:17.786Z,3.06
2019-03-25T15:25:25.997Z,3.25
2019-03-25T15:30:36.255Z,3.54
2019-03-25T15:35:42.199Z,3.68
2019-03-25T15:40:50.533Z,3.02
2019-03-25T15:45:59.166Z,2.69
2019-03-25T15:51:08.038Z,2.62
2019-03-25T15:56:19.145Z,2.74
2019-03-25T16:01:17.461Z,2.92
2019-03-25T16:06:25.585Z,3.18
2019-03-25T16:11:33.950Z,2.52
2019-03-25T16:16:42.406Z,2.89
2019-03-25T16:21:50.526Z,2.64
2019-03-25T16:26:58.846Z,2.89
2019-03-25T16:32:07.147Z,2.65
2019-03-25T16:37:15.350Z,2.92
2019-03-25T16:42:23.669Z,2.75
2019-03-25T16:47:31.821Z,2.99
2019-03-25T16:52:40.030Z,3.90
2019-03-25T16:57:48.240Z,2.99
2019-03-25T17:02:56.483Z,2.78
2019-03-25T17:08:04.847Z,3.69
2019-03-25T17:13:13.025Z,3.19
2019-03-25T17:18:21.169Z,3.34
2019-03-25T17:23:29.278Z,3.90
2019-03-25T17:28:37.502Z,3.75
2019-03-25T17:33:45.676Z,4.12
2019-03-25T17:38:54.030Z,4.05
2019-03-25T17:43:54.549Z,3.99
2019-03-25T17:49:02.933Z,3.81
2019-03-25T17:54:11.295Z,3.14
2019-03-25T17:59:19.576Z,3.06
2019-03-25T18:04:27.880Z,3.39
2019-03-25T18:09:36.149Z,2.80
2019-03-25T18:14:44.442Z,4.23
2019-03-25T18:19:52.754Z,4.07
2019-03-25T18:25:00.922Z,4.32
2019-03-25T18:30:09.128Z,4.41
2019-03-25T18:35:17.500Z,4.53
2019-03-25T18:40:25.836Z,4.92
2019-03-25T18:45:33.969Z,3.97
2019-03-25T18:50:42.530Z,4.00
2019-03-25T18:55:51.298Z,5.33
2019-03-25T19:01:00.031Z,6.00
2019-03-25T19:06:08.250Z,5.22
2019-03-25T19:11:16.516Z,4.53
2019-03-25T19:16:24.782Z,4.74
2019-03-25T19:21:33.356Z,4.93
2019-03-25T19:26:42.046Z,5.63
2019-03-25T19:31:50.231Z,5.93
2019-03-25T19:36:58.444Z,5.90
2019-03-25T19:42:06.991Z,5.02
2019-03-25T19:47:15.215Z,5.02
2019-03-25T19:52:23.423Z,5.29
2019-03-25T19:57:31.879Z,4.75
2019-03-25T20:02:40.206Z,5.06
2019-03-25T20:07:48.370Z,4.34
2019-03-25T20:12:56.536Z,4.77
2019-03-25T20:18:04.813Z,4.47
2019-03-25T20:23:13.036Z,4.73
2019-03-25T20:28:21.157Z,4.94
2019-03-25T20:33:29.336Z,5.25
2019-03-25T20:38:38.402Z,7.75
2019-03-25T20:43:46.814Z,6.01
2019-03-25T20:48:55.226Z,5.41
2019-03-25T20:54:03.564Z,5.37
2019-03-25T20:59:11.965Z,4.94
2019-03-25T21:04:20.815Z,5.31
2019-03-25T21:09:28.960Z,5.03
2019-03-25T21:14:37.269Z,5.12
2019-03-25T21:19:45.828Z,5.13
2019-03-25T21:24:54.826Z,5.09
2019-03-25T21:30:03.157Z,4.48
2019-03-25T21:35:11.512Z,4.32
2019-03-25T21:40:19.660Z,5.48
2019-03-25T21:45:42.529Z,4.64
2019-03-25T21:50:30.864Z,4.20
2019-03-25T21:55:39.058Z,7.87
2019-03-25T22:00:47.707Z,5.34
2019-03-25T22:05:56.098Z,5.62
2019-03-25T22:11:04.380Z,6.10
2019-03-25T22:16:12.607Z,6.48
2019-03-25T22:21:20.771Z,6.03
2019-03-25T22:26:29.042Z,6.76
2019-03-25T22:31:37.252Z,7.09
2019-03-25T22:36:45.527Z,7.00
2019-03-25T22:41:53.802Z,6.98
2019-03-25T22:47:02.346Z,6.50
2019-03-25T22:52:10.581Z,6.99
2019-03-25T22:57:18.818Z,6.95
2019-03-25T23:02:27.106Z,6.52
2019-03-25T23:07:35.530Z,6.62
2019-03-25T23:12:43.996Z,7.10
2019-03-25T23:17:52.470Z,6.46
2019-03-25T23:23:00.910Z,6.21
2019-03-25T23:28:09.209Z,5.65
2019-03-25T23:33:17.448Z,5.86
2019-03-25T23:38:25.665Z,5.60
2019-03-25T23:43:33.903Z,5.56
2019-03-25T23:48:40.541Z,6.42
2019-03-25T23:53:48.748Z,5.20
2019-03-25T23:58:56.977Z,5.54
